sensor_id;sensor_type;location;lat;lon;timestamp;P1;durP1;ratioP1;P2;durP2;ratioP2
14984;SDS011;7588;62.368;25.902;2022-10-31T00:00:44;6.33;;;2.00;;
14984;SDS011;7588;62.368;25.902;2022-10-31T00:03:11;5.70;;;2.63;;
14984;SDS011;7588;62.368;25.902;2022-10-31T00:05:39;5.50;;;2.73;;
14984;SDS011;7588;62.368;25.902;2022-10-31T00:08:10;8.33;;;2.37;;
14984;SDS011;7588;62.368;25.902;2022-10-31T00:10:39;3.87;;;1.90;;
14984;SDS011;7588;62.368;25.902;2022-10-31T00:13:06;4.97;;;2.70;;
14984;SDS011;7588;62.368;25.902;2022-10-31T00:15:36;5.30;;;2.10;;
14984;SDS011;7588;62.368;25.902;2022-10-31T00:18:03;6.77;;;2.60;;
14984;SDS011;7588;62.368;25.902;2022-10-31T00:20:31;8.50;;;2.87;;
14984;SDS011;7588;62.368;25.902;2022-10-31T00:22:57;5.27;;;2.83;;
14984;SDS011;7588;62.368;25.902;2022-10-31T00:25:24;2.77;;;2.50;;
14984;SDS011;7588;62.368;25.902;2022-10-31T00:27:50;7.67;;;2.13;;
14984;SDS011;7588;62.368;25.902;2022-10-31T00:30:15;8.10;;;2.97;;
14984;SDS011;7588;62.368;25.902;2022-10-31T00:32:41;6.00;;;2.23;;
14984;SDS011;7588;62.368;25.902;2022-10-31T00:35:07;8.33;;;2.87;;
14984;SDS011;7588;62.368;25.902;2022-10-31T00:37:33;6.53;;;2.23;;
14984;SDS011;7588;62.368;25.902;2022-10-31T00:39:58;8.33;;;2.97;;
14984;SDS011;7588;62.368;25.902;2022-10-31T00:42:24;9.83;;;2.57;;
14984;SDS011;7588;62.368;25.902;2022-10-31T00:44:50;7.00;;;2.47;;
14984;SDS011;7588;62.368;25.902;2022-10-31T00:47:15;5.57;;;2.70;;
14984;SDS011;7588;62.368;25.902;2022-10-31T00:49:41;5.53;;;2.37;;
14984;SDS011;7588;62.368;25.902;2022-10-31T00:52:07;7.43;;;2.37;;
14984;SDS011;7588;62.368;25.902;2022-10-31T00:54:33;5.93;;;2.30;;
14984;SDS011;7588;62.368;25.902;2022-10-31T00:56:58;6.00;;;2.33;;
14984;SDS011;7588;62.368;25.902;2022-10-31T00:59:24;7.10;;;2.40;;
14984;SDS011;7588;62.368;25.902;2022-10-31T01:01:50;9.57;;;3.00;;
14984;SDS011;7588;62.368;25.902;2022-10-31T01:04:15;7.77;;;2.70;;
14984;SDS011;7588;62.368;25.902;2022-10-31T01:06:41;8.90;;;3.10;;
14984;SDS011;7588;62.368;25.902;2022-10-31T01:09:07;7.53;;;2.53;;
14984;SDS011;7588;62.368;25.902;2022-10-31T01:11:33;7.73;;;2.47;;
14984;SDS011;7588;62.368;25.902;2022-10-31T01:13:58;5.07;;;2.60;;
14984;SDS011;7588;62.368;25.902;2022-10-31T01:16:25;2.67;;;2.10;;
14984;SDS011;7588;62.368;25.902;2022-10-31T01:18:52;8.87;;;2.93;;
14984;SDS011;7588;62.368;25.902;2022-10-31T01:23:45;7.97;;;2.23;;
14984;SDS011;7588;62.368;25.902;2022-10-31T01:26:15;4.13;;;2.37;;
14984;SDS011;7588;62.368;25.902;2022-10-31T01:28:46;5.33;;;2.73;;
14984;SDS011;7588;62.368;25.902;2022-10-31T01:31:14;5.93;;;2.70;;
14984;SDS011;7588;62.368;25.902;2022-10-31T01:33:41;7.07;;;3.03;;
14984;SDS011;7588;62.368;25.902;2022-10-31T01:36:21;6.33;;;2.80;;
14984;SDS011;7588;62.368;25.902;2022-10-31T01:38:49;6.23;;;2.40;;
14984;SDS011;7588;62.368;25.902;2022-10-31T01:41:20;4.47;;;2.47;;
14984;SDS011;7588;62.368;25.902;2022-10-31T01:43:52;5.03;;;2.80;;
14984;SDS011;7588;62.368;25.902;2022-10-31T01:46:24;9.07;;;2.50;;
14984;SDS011;7588;62.368;25.902;2022-10-31T01:48:54;10.00;;;3.10;;
14984;SDS011;7588;62.368;25.902;2022-10-31T01:51:23;4.47;;;2.80;;
14984;SDS011;7588;62.368;25.902;2022-10-31T01:53:54;5.23;;;2.60;;
14984;SDS011;7588;62.368;25.902;2022-10-31T01:56:23;6.33;;;2.27;;
14984;SDS011;7588;62.368;25.902;2022-10-31T01:58:49;9.50;;;2.90;;
14984;SDS011;7588;62.368;25.902;2022-10-31T02:01:16;5.20;;;2.47;;
14984;SDS011;7588;62.368;25.902;2022-10-31T02:03:42;6.03;;;2.97;;
14984;SDS011;7588;62.368;25.902;2022-10-31T02:06:10;9.77;;;2.80;;
14984;SDS011;7588;62.368;25.902;2022-10-31T02:08:46;7.90;;;2.70;;
14984;SDS011;7588;62.368;25.902;2022-10-31T02:11:12;6.87;;;2.27;;
14984;SDS011;7588;62.368;25.902;2022-10-31T02:13:39;4.77;;;2.60;;
14984;SDS011;7588;62.368;25.902;2022-10-31T02:16:04;6.97;;;2.63;;
14984;SDS011;7588;62.368;25.902;2022-10-31T02:18:30;8.60;;;2.47;;
14984;SDS011;7588;62.368;25.902;2022-10-31T02:23:53;3.30;;;2.53;;
14984;SDS011;7588;62.368;25.902;2022-10-31T02:32:07;5.07;;;2.60;;
14984;SDS011;7588;62.368;25.902;2022-10-31T02:40:58;3.23;;;2.37;;
14984;SDS011;7588;62.368;25.902;2022-10-31T02:43:43;7.40;;;2.60;;
14984;SDS011;7588;62.368;25.902;2022-10-31T02:48:57;6.57;;;2.67;;
14984;SDS011;7588;62.368;25.902;2022-10-31T02:51:27;6.50;;;2.83;;
14984;SDS011;7588;62.368;25.902;2022-10-31T02:53:53;6.37;;;2.73;;
14984;SDS011;7588;62.368;25.902;2022-10-31T02:56:19;6.63;;;2.47;;
14984;SDS011;7588;62.368;25.902;2022-10-31T02:58:49;5.87;;;2.50;;
14984;SDS011;7588;62.368;25.902;2022-10-31T03:12:25;2.90;;;2.40;;
14984;SDS011;7588;62.368;25.902;2022-10-31T03:14:54;4.00;;;3.03;;
14984;SDS011;7588;62.368;25.902;2022-10-31T03:17:45;6.90;;;2.77;;
14984;SDS011;7588;62.368;25.902;2022-10-31T03:20:12;6.23;;;3.00;;
14984;SDS011;7588;62.368;25.902;2022-10-31T03:22:40;7.43;;;2.73;;
14984;SDS011;7588;62.368;25.902;2022-10-31T03:25:08;3.40;;;3.10;;
14984;SDS011;7588;62.368;25.902;2022-10-31T03:27:36;11.23;;;3.47;;
14984;SDS011;7588;62.368;25.902;2022-10-31T03:30:04;8.30;;;2.97;;
14984;SDS011;7588;62.368;25.902;2022-10-31T03:32:36;6.03;;;2.80;;
14984;SDS011;7588;62.368;25.902;2022-10-31T03:35:05;8.83;;;3.80;;
14984;SDS011;7588;62.368;25.902;2022-10-31T03:37:33;7.33;;;2.80;;
14984;SDS011;7588;62.368;25.902;2022-10-31T03:40:01;11.47;;;3.27;;
14984;SDS011;7588;62.368;25.902;2022-10-31T03:42:31;4.77;;;3.07;;
14984;SDS011;7588;62.368;25.902;2022-10-31T03:45:06;8.07;;;2.90;;
14984;SDS011;7588;62.368;25.902;2022-10-31T03:47:38;5.47;;;3.03;;
14984;SDS011;7588;62.368;25.902;2022-10-31T03:50:05;7.03;;;3.13;;
14984;SDS011;7588;62.368;25.902;2022-10-31T03:52:35;10.10;;;3.17;;
14984;SDS011;7588;62.368;25.902;2022-10-31T03:58:15;7.70;;;3.03;;
14984;SDS011;7588;62.368;25.902;2022-10-31T04:00:44;9.17;;;3.63;;
14984;SDS011;7588;62.368;25.902;2022-10-31T04:03:14;8.43;;;4.30;;
14984;SDS011;7588;62.368;25.902;2022-10-31T04:05:49;5.77;;;3.47;;
14984;SDS011;7588;62.368;25.902;2022-10-31T04:08:19;8.37;;;3.80;;
14984;SDS011;7588;62.368;25.902;2022-10-31T04:10:49;9.07;;;3.50;;
14984;SDS011;7588;62.368;25.902;2022-10-31T04:13:19;8.83;;;3.30;;
14984;SDS011;7588;62.368;25.902;2022-10-31T04:15:49;5.03;;;3.50;;
14984;SDS011;7588;62.368;25.902;2022-10-31T04:18:17;8.27;;;2.90;;
14984;SDS011;7588;62.368;25.902;2022-10-31T04:20:43;8.27;;;2.73;;
14984;SDS011;7588;62.368;25.902;2022-10-31T04:23:24;6.03;;;2.83;;
14984;SDS011;7588;62.368;25.902;2022-10-31T04:25:51;6.70;;;2.67;;
14984;SDS011;7588;62.368;25.902;2022-10-31T04:28:17;3.03;;;2.57;;
14984;SDS011;7588;62.368;25.902;2022-10-31T04:30:43;7.00;;;2.97;;
14984;SDS011;7588;62.368;25.902;2022-10-31T04:33:09;7.73;;;3.20;;
14984;SDS011;7588;62.368;25.902;2022-10-31T04:35:35;5.20;;;3.17;;
14984;SDS011;7588;62.368;25.902;2022-10-31T04:38:00;3.93;;;3.10;;
14984;SDS011;7588;62.368;25.902;2022-10-31T04:40:26;4.27;;;2.60;;
14984;SDS011;7588;62.368;25.902;2022-10-31T04:42:52;4.63;;;2.77;;
14984;SDS011;7588;62.368;25.902;2022-10-31T04:45:17;5.63;;;2.93;;
14984;SDS011;7588;62.368;25.902;2022-10-31T04:47:43;8.50;;;3.13;;
14984;SDS011;7588;62.368;25.902;2022-10-31T04:50:09;4.50;;;2.70;;
14984;SDS011;7588;62.368;25.902;2022-10-31T04:52:38;10.90;;;2.93;;
14984;SDS011;7588;62.368;25.902;2022-10-31T04:55:05;4.60;;;2.80;;
14984;SDS011;7588;62.368;25.902;2022-10-31T04:57:31;11.13;;;3.63;;
14984;SDS011;7588;62.368;25.902;2022-10-31T04:59:56;5.77;;;3.70;;
14984;SDS011;7588;62.368;25.902;2022-10-31T05:02:22;4.53;;;3.30;;
14984;SDS011;7588;62.368;25.902;2022-10-31T05:04:48;5.10;;;3.23;;
14984;SDS011;7588;62.368;25.902;2022-10-31T05:07:14;6.33;;;3.10;;
14984;SDS011;7588;62.368;25.902;2022-10-31T05:09:39;4.93;;;3.23;;
14984;SDS011;7588;62.368;25.902;2022-10-31T05:12:05;8.67;;;3.80;;
14984;SDS011;7588;62.368;25.902;2022-10-31T05:14:31;4.47;;;2.93;;
14984;SDS011;7588;62.368;25.902;2022-10-31T05:16:56;7.37;;;2.70;;
14984;SDS011;7588;62.368;25.902;2022-10-31T05:19:22;7.47;;;3.20;;
14984;SDS011;7588;62.368;25.902;2022-10-31T05:21:48;6.77;;;3.30;;
14984;SDS011;7588;62.368;25.902;2022-10-31T05:24:14;7.90;;;3.37;;
14984;SDS011;7588;62.368;25.902;2022-10-31T05:26:39;6.87;;;2.97;;
14984;SDS011;7588;62.368;25.902;2022-10-31T05:29:05;6.00;;;3.33;;
14984;SDS011;7588;62.368;25.902;2022-10-31T05:31:31;7.03;;;3.53;;
14984;SDS011;7588;62.368;25.902;2022-10-31T05:33:56;5.67;;;3.43;;
14984;SDS011;7588;62.368;25.902;2022-10-31T05:36:22;6.77;;;3.00;;
14984;SDS011;7588;62.368;25.902;2022-10-31T05:38:48;5.80;;;3.40;;
14984;SDS011;7588;62.368;25.902;2022-10-31T05:41:13;8.63;;;3.00;;
14984;SDS011;7588;62.368;25.902;2022-10-31T05:43:39;7.20;;;3.23;;
14984;SDS011;7588;62.368;25.902;2022-10-31T05:46:05;7.17;;;3.17;;
14984;SDS011;7588;62.368;25.902;2022-10-31T05:48:30;6.17;;;2.93;;
14984;SDS011;7588;62.368;25.902;2022-10-31T05:50:56;9.90;;;3.33;;
14984;SDS011;7588;62.368;25.902;2022-10-31T05:53:22;6.70;;;3.87;;
14984;SDS011;7588;62.368;25.902;2022-10-31T05:55:48;6.57;;;3.43;;
14984;SDS011;7588;62.368;25.902;2022-10-31T05:58:13;6.53;;;2.83;;
14984;SDS011;7588;62.368;25.902;2022-10-31T06:00:39;4.90;;;3.00;;
14984;SDS011;7588;62.368;25.902;2022-10-31T06:03:06;5.23;;;2.83;;
14984;SDS011;7588;62.368;25.902;2022-10-31T06:05:33;7.43;;;3.90;;
14984;SDS011;7588;62.368;25.902;2022-10-31T06:07:58;6.67;;;3.20;;
14984;SDS011;7588;62.368;25.902;2022-10-31T06:10:24;6.50;;;3.30;;
14984;SDS011;7588;62.368;25.902;2022-10-31T06:12:51;5.90;;;2.93;;
14984;SDS011;7588;62.368;25.902;2022-10-31T06:15:16;5.67;;;2.60;;
14984;SDS011;7588;62.368;25.902;2022-10-31T06:17:43;6.47;;;3.43;;
14984;SDS011;7588;62.368;25.902;2022-10-31T06:20:09;5.10;;;4.60;;
14984;SDS011;7588;62.368;25.902;2022-10-31T06:22:35;5.63;;;3.20;;
14984;SDS011;7588;62.368;25.902;2022-10-31T06:25:00;9.57;;;6.07;;
14984;SDS011;7588;62.368;25.902;2022-10-31T06:27:26;11.67;;;4.23;;
14984;SDS011;7588;62.368;25.902;2022-10-31T06:29:52;7.33;;;4.17;;
14984;SDS011;7588;62.368;25.902;2022-10-31T06:32:18;5.37;;;4.20;;
14984;SDS011;7588;62.368;25.902;2022-10-31T06:34:44;7.00;;;3.77;;
14984;SDS011;7588;62.368;25.902;2022-10-31T06:37:13;6.23;;;4.20;;
14984;SDS011;7588;62.368;25.902;2022-10-31T06:39:39;7.97;;;4.03;;
14984;SDS011;7588;62.368;25.902;2022-10-31T06:42:05;7.37;;;3.70;;
14984;SDS011;7588;62.368;25.902;2022-10-31T06:44:31;5.80;;;3.13;;
14984;SDS011;7588;62.368;25.902;2022-10-31T06:46:57;5.37;;;2.70;;
14984;SDS011;7588;62.368;25.902;2022-10-31T06:49:23;6.03;;;3.13;;
14984;SDS011;7588;62.368;25.902;2022-10-31T06:51:49;8.57;;;3.37;;
14984;SDS011;7588;62.368;25.902;2022-10-31T06:54:15;7.00;;;3.80;;
14984;SDS011;7588;62.368;25.902;2022-10-31T06:56:41;9.87;;;3.90;;
14984;SDS011;7588;62.368;25.902;2022-10-31T06:59:07;6.43;;;3.87;;
14984;SDS011;7588;62.368;25.902;2022-10-31T07:01:33;5.17;;;3.73;;
14984;SDS011;7588;62.368;25.902;2022-10-31T07:03:59;7.57;;;3.60;;
14984;SDS011;7588;62.368;25.902;2022-10-31T07:06:25;6.53;;;3.80;;
14984;SDS011;7588;62.368;25.902;2022-10-31T07:08:51;6.17;;;3.70;;
14984;SDS011;7588;62.368;25.902;2022-10-31T07:11:17;7.80;;;3.60;;
14984;SDS011;7588;62.368;25.902;2022-10-31T07:13:42;12.00;;;3.57;;
14984;SDS011;7588;62.368;25.902;2022-10-31T07:16:08;13.60;;;3.33;;
14984;SDS011;7588;62.368;25.902;2022-10-31T07:18:38;6.27;;;3.40;;
14984;SDS011;7588;62.368;25.902;2022-10-31T07:21:04;14.97;;;4.23;;
14984;SDS011;7588;62.368;25.902;2022-10-31T07:23:30;9.73;;;4.30;;
14984;SDS011;7588;62.368;25.902;2022-10-31T07:25:57;8.63;;;4.17;;
14984;SDS011;7588;62.368;25.902;2022-10-31T07:28:24;5.23;;;3.90;;
14984;SDS011;7588;62.368;25.902;2022-10-31T07:30:51;6.23;;;4.10;;
14984;SDS011;7588;62.368;25.902;2022-10-31T07:33:21;7.97;;;4.13;;
14984;SDS011;7588;62.368;25.902;2022-10-31T07:35:47;5.47;;;3.10;;
14984;SDS011;7588;62.368;25.902;2022-10-31T07:38:13;10.03;;;3.87;;
14984;SDS011;7588;62.368;25.902;2022-10-31T07:40:40;7.63;;;3.30;;
14984;SDS011;7588;62.368;25.902;2022-10-31T07:43:07;8.33;;;3.70;;
14984;SDS011;7588;62.368;25.902;2022-10-31T07:45:33;7.77;;;4.10;;
14984;SDS011;7588;62.368;25.902;2022-10-31T07:47:59;8.53;;;3.30;;
14984;SDS011;7588;62.368;25.902;2022-10-31T07:50:26;5.37;;;2.97;;
14984;SDS011;7588;62.368;25.902;2022-10-31T07:53:12;14.17;;;3.93;;
14984;SDS011;7588;62.368;25.902;2022-10-31T07:55:39;9.90;;;4.17;;
14984;SDS011;7588;62.368;25.902;2022-10-31T07:58:05;8.43;;;3.30;;
14984;SDS011;7588;62.368;25.902;2022-10-31T08:00:33;5.30;;;3.47;;
14984;SDS011;7588;62.368;25.902;2022-10-31T08:03:10;9.50;;;3.87;;
14984;SDS011;7588;62.368;25.902;2022-10-31T08:05:37;13.87;;;4.30;;
14984;SDS011;7588;62.368;25.902;2022-10-31T08:08:05;13.13;;;4.30;;
14984;SDS011;7588;62.368;25.902;2022-10-31T08:10:31;10.73;;;6.40;;
14984;SDS011;7588;62.368;25.902;2022-10-31T08:12:58;10.93;;;4.70;;
14984;SDS011;7588;62.368;25.902;2022-10-31T08:15:28;12.50;;;6.50;;
14984;SDS011;7588;62.368;25.902;2022-10-31T08:17:54;13.27;;;7.73;;
14984;SDS011;7588;62.368;25.902;2022-10-31T08:20:20;11.80;;;7.07;;
14984;SDS011;7588;62.368;25.902;2022-10-31T08:22:56;12.60;;;6.70;;
14984;SDS011;7588;62.368;25.902;2022-10-31T08:25:27;9.10;;;6.27;;
14984;SDS011;7588;62.368;25.902;2022-10-31T08:27:55;19.47;;;8.30;;
14984;SDS011;7588;62.368;25.902;2022-10-31T08:30:21;11.13;;;6.37;;
14984;SDS011;7588;62.368;25.902;2022-10-31T08:35:36;11.37;;;4.90;;
14984;SDS011;7588;62.368;25.902;2022-10-31T08:38:02;8.00;;;4.23;;
14984;SDS011;7588;62.368;25.902;2022-10-31T08:40:28;9.30;;;5.37;;
14984;SDS011;7588;62.368;25.902;2022-10-31T08:43:05;9.50;;;4.57;;
14984;SDS011;7588;62.368;25.902;2022-10-31T08:45:35;7.13;;;4.13;;
14984;SDS011;7588;62.368;25.902;2022-10-31T08:48:02;7.50;;;4.30;;
14984;SDS011;7588;62.368;25.902;2022-10-31T08:50:30;5.63;;;3.67;;
14984;SDS011;7588;62.368;25.902;2022-10-31T08:53:01;11.70;;;3.93;;
14984;SDS011;7588;62.368;25.902;2022-10-31T08:55:33;7.03;;;3.47;;
14984;SDS011;7588;62.368;25.902;2022-10-31T08:58:00;8.03;;;3.40;;
14984;SDS011;7588;62.368;25.902;2022-10-31T09:00:26;4.87;;;2.70;;
14984;SDS011;7588;62.368;25.902;2022-10-31T09:02:56;6.50;;;3.60;;
14984;SDS011;7588;62.368;25.902;2022-10-31T09:05:22;7.17;;;3.60;;
14984;SDS011;7588;62.368;25.902;2022-10-31T09:07:48;7.23;;;3.40;;
14984;SDS011;7588;62.368;25.902;2022-10-31T09:10:14;6.37;;;3.43;;
14984;SDS011;7588;62.368;25.902;2022-10-31T09:12:39;9.77;;;4.07;;
14984;SDS011;7588;62.368;25.902;2022-10-31T09:15:06;7.50;;;3.30;;
14984;SDS011;7588;62.368;25.902;2022-10-31T09:17:32;8.93;;;3.77;;
14984;SDS011;7588;62.368;25.902;2022-10-31T09:19:58;6.43;;;3.80;;
14984;SDS011;7588;62.368;25.902;2022-10-31T09:22:24;15.13;;;3.87;;
14984;SDS011;7588;62.368;25.902;2022-10-31T09:24:49;6.63;;;3.50;;
14984;SDS011;7588;62.368;25.902;2022-10-31T09:27:15;8.70;;;3.60;;
14984;SDS011;7588;62.368;25.902;2022-10-31T09:29:41;9.33;;;3.27;;
14984;SDS011;7588;62.368;25.902;2022-10-31T09:32:06;8.03;;;4.03;;
14984;SDS011;7588;62.368;25.902;2022-10-31T09:34:32;4.93;;;3.37;;
14984;SDS011;7588;62.368;25.902;2022-10-31T09:36:58;4.73;;;3.40;;
14984;SDS011;7588;62.368;25.902;2022-10-31T09:39:23;8.60;;;3.33;;
14984;SDS011;7588;62.368;25.902;2022-10-31T09:47:44;9.47;;;3.83;;
14984;SDS011;7588;62.368;25.902;2022-10-31T09:50:45;11.33;;;4.73;;
14984;SDS011;7588;62.368;25.902;2022-10-31T09:53:22;25.80;;;14.73;;
14984;SDS011;7588;62.368;25.902;2022-10-31T09:55:57;8.63;;;4.37;;
14984;SDS011;7588;62.368;25.902;2022-10-31T09:58:24;6.57;;;2.83;;
14984;SDS011;7588;62.368;25.902;2022-10-31T10:00:53;14.57;;;5.53;;
14984;SDS011;7588;62.368;25.902;2022-10-31T10:06:06;9.23;;;4.13;;
14984;SDS011;7588;62.368;25.902;2022-10-31T10:08:43;9.70;;;5.13;;
14984;SDS011;7588;62.368;25.902;2022-10-31T10:24:12;5.10;;;2.80;;
14984;SDS011;7588;62.368;25.902;2022-10-31T10:30:00;3.77;;;2.13;;
14984;SDS011;7588;62.368;25.902;2022-10-31T10:32:43;6.00;;;2.30;;
14984;SDS011;7588;62.368;25.902;2022-10-31T10:35:29;2.57;;;2.20;;
14984;SDS011;7588;62.368;25.902;2022-10-31T10:38:14;3.33;;;2.50;;
14984;SDS011;7588;62.368;25.902;2022-10-31T10:40:43;3.13;;;2.00;;
14984;SDS011;7588;62.368;25.902;2022-10-31T10:48:49;6.27;;;2.43;;
14984;SDS011;7588;62.368;25.902;2022-10-31T10:51:37;4.13;;;1.73;;
14984;SDS011;7588;62.368;25.902;2022-10-31T10:59:16;3.17;;;1.70;;
14984;SDS011;7588;62.368;25.902;2022-10-31T11:01:46;3.53;;;1.70;;
14984;SDS011;7588;62.368;25.902;2022-10-31T11:04:38;7.87;;;1.80;;
14984;SDS011;7588;62.368;25.902;2022-10-31T11:07:05;4.27;;;1.70;;
14984;SDS011;7588;62.368;25.902;2022-10-31T11:09:35;3.80;;;1.93;;
14984;SDS011;7588;62.368;25.902;2022-10-31T11:12:07;3.57;;;2.00;;
14984;SDS011;7588;62.368;25.902;2022-10-31T11:14:44;5.97;;;2.00;;
14984;SDS011;7588;62.368;25.902;2022-10-31T11:22:46;8.50;;;1.80;;
14984;SDS011;7588;62.368;25.902;2022-10-31T11:27:58;3.80;;;1.70;;
14984;SDS011;7588;62.368;25.902;2022-10-31T11:30:25;3.53;;;1.80;;
14984;SDS011;7588;62.368;25.902;2022-10-31T11:32:51;4.57;;;1.60;;
14984;SDS011;7588;62.368;25.902;2022-10-31T11:35:18;7.80;;;2.00;;
14984;SDS011;7588;62.368;25.902;2022-10-31T11:37:46;3.10;;;1.47;;
14984;SDS011;7588;62.368;25.902;2022-10-31T11:40:31;6.43;;;1.70;;
14984;SDS011;7588;62.368;25.902;2022-10-31T11:42:57;5.73;;;1.90;;
14984;SDS011;7588;62.368;25.902;2022-10-31T11:45:33;2.67;;;1.27;;
14984;SDS011;7588;62.368;25.902;2022-10-31T11:48:02;2.23;;;1.40;;
14984;SDS011;7588;62.368;25.902;2022-10-31T11:50:40;3.80;;;1.47;;
14984;SDS011;7588;62.368;25.902;2022-10-31T11:53:14;5.77;;;1.70;;
14984;SDS011;7588;62.368;25.902;2022-10-31T11:55:42;2.63;;;1.50;;
14984;SDS011;7588;62.368;25.902;2022-10-31T11:58:23;4.63;;;1.73;;
14984;SDS011;7588;62.368;25.902;2022-10-31T12:00:51;2.67;;;1.63;;
14984;SDS011;7588;62.368;25.902;2022-10-31T12:05:49;3.33;;;1.50;;
14984;SDS011;7588;62.368;25.902;2022-10-31T12:08:17;3.20;;;1.70;;
14984;SDS011;7588;62.368;25.902;2022-10-31T12:19:04;15.33;;;2.53;;
14984;SDS011;7588;62.368;25.902;2022-10-31T12:24:24;2.20;;;2.00;;
14984;SDS011;7588;62.368;25.902;2022-10-31T12:30:11;8.50;;;2.00;;
14984;SDS011;7588;62.368;25.902;2022-10-31T12:37:56;3.63;;;1.60;;
14984;SDS011;7588;62.368;25.902;2022-10-31T12:58:03;3.03;;;1.50;;
14984;SDS011;7588;62.368;25.902;2022-10-31T13:00:35;5.83;;;2.03;;
14984;SDS011;7588;62.368;25.902;2022-10-31T13:05:54;3.87;;;1.43;;
14984;SDS011;7588;62.368;25.902;2022-10-31T13:08:33;5.40;;;2.20;;
14984;SDS011;7588;62.368;25.902;2022-10-31T13:11:24;3.73;;;1.43;;
14984;SDS011;7588;62.368;25.902;2022-10-31T13:14:43;4.43;;;2.13;;
14984;SDS011;7588;62.368;25.902;2022-10-31T13:17:01;6.07;;;1.70;;
14984;SDS011;7588;62.368;25.902;2022-10-31T13:19:34;2.97;;;2.00;;
14984;SDS011;7588;62.368;25.902;2022-10-31T13:27:54;6.77;;;1.93;;
14984;SDS011;7588;62.368;25.902;2022-10-31T13:30:49;4.33;;;1.87;;
14984;SDS011;7588;62.368;25.902;2022-10-31T13:33:34;3.37;;;1.67;;
14984;SDS011;7588;62.368;25.902;2022-10-31T13:41:27;3.70;;;2.23;;
14984;SDS011;7588;62.368;25.902;2022-10-31T13:46:53;8.37;;;2.70;;
14984;SDS011;7588;62.368;25.902;2022-10-31T13:51:49;5.57;;;2.40;;
14984;SDS011;7588;62.368;25.902;2022-10-31T13:54:21;3.97;;;2.23;;
14984;SDS011;7588;62.368;25.902;2022-10-31T13:56:56;6.17;;;2.60;;
14984;SDS011;7588;62.368;25.902;2022-10-31T13:59:22;5.13;;;2.57;;
14984;SDS011;7588;62.368;25.902;2022-10-31T14:02:00;4.97;;;2.83;;
14984;SDS011;7588;62.368;25.902;2022-10-31T14:07:12;4.80;;;3.43;;
14984;SDS011;7588;62.368;25.902;2022-10-31T14:12:49;7.20;;;2.80;;
14984;SDS011;7588;62.368;25.902;2022-10-31T14:17:53;5.40;;;2.97;;
14984;SDS011;7588;62.368;25.902;2022-10-31T14:20:26;10.30;;;2.97;;
14984;SDS011;7588;62.368;25.902;2022-10-31T14:22:56;8.20;;;2.83;;
14984;SDS011;7588;62.368;25.902;2022-10-31T14:25:32;7.47;;;2.87;;
14984;SDS011;7588;62.368;25.902;2022-10-31T14:28:01;7.03;;;2.87;;
14984;SDS011;7588;62.368;25.902;2022-10-31T14:30:29;10.47;;;3.00;;
14984;SDS011;7588;62.368;25.902;2022-10-31T14:32:59;8.77;;;3.20;;
14984;SDS011;7588;62.368;25.902;2022-10-31T14:38:35;9.00;;;3.60;;
14984;SDS011;7588;62.368;25.902;2022-10-31T14:47:08;5.27;;;3.83;;
14984;SDS011;7588;62.368;25.902;2022-10-31T14:52:07;4.33;;;2.70;;
14984;SDS011;7588;62.368;25.902;2022-10-31T14:54:39;6.43;;;2.53;;
14984;SDS011;7588;62.368;25.902;2022-10-31T14:57:15;4.17;;;2.70;;
14984;SDS011;7588;62.368;25.902;2022-10-31T14:59:47;6.13;;;3.13;;
14984;SDS011;7588;62.368;25.902;2022-10-31T15:02:21;8.53;;;4.37;;
14984;SDS011;7588;62.368;25.902;2022-10-31T15:05:12;8.03;;;3.43;;
14984;SDS011;7588;62.368;25.902;2022-10-31T15:07:54;6.60;;;3.50;;
14984;SDS011;7588;62.368;25.902;2022-10-31T15:10:23;8.50;;;3.30;;
14984;SDS011;7588;62.368;25.902;2022-10-31T15:12:50;7.80;;;3.00;;
14984;SDS011;7588;62.368;25.902;2022-10-31T15:15:18;9.60;;;2.83;;
14984;SDS011;7588;62.368;25.902;2022-10-31T15:17:55;4.17;;;2.60;;
14984;SDS011;7588;62.368;25.902;2022-10-31T15:20:26;10.43;;;3.53;;
14984;SDS011;7588;62.368;25.902;2022-10-31T15:22:57;7.93;;;3.03;;
14984;SDS011;7588;62.368;25.902;2022-10-31T15:25:25;5.57;;;2.50;;
14984;SDS011;7588;62.368;25.902;2022-10-31T15:27:53;7.20;;;2.97;;
14984;SDS011;7588;62.368;25.902;2022-10-31T15:30:23;7.10;;;2.80;;
14984;SDS011;7588;62.368;25.902;2022-10-31T15:32:51;9.30;;;2.73;;
14984;SDS011;7588;62.368;25.902;2022-10-31T15:37:50;5.20;;;3.00;;
14984;SDS011;7588;62.368;25.902;2022-10-31T15:40:17;7.33;;;2.63;;
14984;SDS011;7588;62.368;25.902;2022-10-31T15:42:49;6.80;;;2.70;;
14984;SDS011;7588;62.368;25.902;2022-10-31T15:45:20;4.83;;;2.60;;
14984;SDS011;7588;62.368;25.902;2022-10-31T15:47:56;10.00;;;2.30;;
14984;SDS011;7588;62.368;25.902;2022-10-31T15:50:31;6.63;;;2.20;;
14984;SDS011;7588;62.368;25.902;2022-10-31T15:53:04;6.13;;;2.10;;
14984;SDS011;7588;62.368;25.902;2022-10-31T15:55:32;4.27;;;2.67;;
14984;SDS011;7588;62.368;25.902;2022-10-31T15:58:09;3.13;;;2.33;;
14984;SDS011;7588;62.368;25.902;2022-10-31T16:00:38;3.77;;;2.23;;
14984;SDS011;7588;62.368;25.902;2022-10-31T16:03:05;5.00;;;2.20;;
14984;SDS011;7588;62.368;25.902;2022-10-31T16:05:38;5.77;;;2.33;;
14984;SDS011;7588;62.368;25.902;2022-10-31T16:08:26;3.80;;;1.83;;
14984;SDS011;7588;62.368;25.902;2022-10-31T16:10:52;2.43;;;1.90;;
14984;SDS011;7588;62.368;25.902;2022-10-31T16:13:19;2.50;;;1.60;;
14984;SDS011;7588;62.368;25.902;2022-10-31T16:15:49;5.53;;;2.10;;
14984;SDS011;7588;62.368;25.902;2022-10-31T16:18:18;3.63;;;1.83;;
14984;SDS011;7588;62.368;25.902;2022-10-31T16:20:48;4.37;;;2.07;;
14984;SDS011;7588;62.368;25.902;2022-10-31T16:23:17;5.60;;;2.20;;
14984;SDS011;7588;62.368;25.902;2022-10-31T16:25:44;4.20;;;1.97;;
14984;SDS011;7588;62.368;25.902;2022-10-31T16:28:15;3.90;;;2.30;;
14984;SDS011;7588;62.368;25.902;2022-10-31T16:30:54;2.50;;;2.27;;
14984;SDS011;7588;62.368;25.902;2022-10-31T16:33:28;4.97;;;2.13;;
14984;SDS011;7588;62.368;25.902;2022-10-31T16:35:55;5.33;;;1.90;;
14984;SDS011;7588;62.368;25.902;2022-10-31T16:38:21;4.43;;;2.10;;
14984;SDS011;7588;62.368;25.902;2022-10-31T16:40:47;6.77;;;2.20;;
14984;SDS011;7588;62.368;25.902;2022-10-31T16:43:15;4.80;;;2.10;;
14984;SDS011;7588;62.368;25.902;2022-10-31T16:45:51;5.93;;;2.03;;
14984;SDS011;7588;62.368;25.902;2022-10-31T16:48:18;4.97;;;2.13;;
14984;SDS011;7588;62.368;25.902;2022-10-31T16:50:46;6.30;;;2.00;;
14984;SDS011;7588;62.368;25.902;2022-10-31T16:53:13;3.37;;;1.90;;
14984;SDS011;7588;62.368;25.902;2022-10-31T16:55:50;4.67;;;2.40;;
14984;SDS011;7588;62.368;25.902;2022-10-31T16:58:26;4.97;;;1.90;;
14984;SDS011;7588;62.368;25.902;2022-10-31T17:00:58;3.63;;;1.83;;
14984;SDS011;7588;62.368;25.902;2022-10-31T17:03:24;3.27;;;2.23;;
14984;SDS011;7588;62.368;25.902;2022-10-31T17:05:50;5.13;;;2.83;;
14984;SDS011;7588;62.368;25.902;2022-10-31T17:08:16;8.13;;;3.20;;
14984;SDS011;7588;62.368;25.902;2022-10-31T17:10:42;3.80;;;2.37;;
14984;SDS011;7588;62.368;25.902;2022-10-31T17:13:12;7.60;;;3.27;;
14984;SDS011;7588;62.368;25.902;2022-10-31T17:15:44;5.73;;;2.90;;
14984;SDS011;7588;62.368;25.902;2022-10-31T17:18:13;5.90;;;2.80;;
14984;SDS011;7588;62.368;25.902;2022-10-31T17:20:39;4.30;;;2.30;;
14984;SDS011;7588;62.368;25.902;2022-10-31T17:23:06;5.40;;;2.50;;
14984;SDS011;7588;62.368;25.902;2022-10-31T17:25:33;6.73;;;2.70;;
14984;SDS011;7588;62.368;25.902;2022-10-31T17:28:00;4.67;;;2.13;;
14984;SDS011;7588;62.368;25.902;2022-10-31T17:30:26;4.50;;;2.20;;
14984;SDS011;7588;62.368;25.902;2022-10-31T17:32:52;4.43;;;2.00;;
14984;SDS011;7588;62.368;25.902;2022-10-31T17:35:19;5.67;;;2.40;;
14984;SDS011;7588;62.368;25.902;2022-10-31T17:37:46;2.97;;;2.03;;
14984;SDS011;7588;62.368;25.902;2022-10-31T17:40:14;4.80;;;2.60;;